sensor_id;sensor_type;location;lat;lon;timestamp;pressure;altitude;pressure_sealevel;temperature
27715;BMP280;16051;53.024;8.630;2023-04-03T00:02:11;103227.53;;;2.87
27715;BMP280;16051;53.024;8.630;2023-04-03T00:06:13;103232.59;;;2.85
27715;BMP280;16051;53.024;8.630;2023-04-03T00:10:17;103225.94;;;2.86
27715;BMP280;16051;53.024;8.630;2023-04-03T00:14:28;103224.16;;;2.74
27715;BMP280;16051;53.024;8.630;2023-04-03T00:18:31;103233.16;;;2.75
27715;BMP280;16051;53.024;8.630;2023-04-03T00:22:33;103225.31;;;2.73
27715;BMP280;16051;53.024;8.630;2023-04-03T00:26:36;103218.63;;;2.71
27715;BMP280;16051;53.024;8.630;2023-04-03T00:30:38;103222.19;;;2.56
27715;BMP280;16051;53.024;8.630;2023-04-03T00:34:41;103220.91;;;2.50
27715;BMP280;16051;53.024;8.630;2023-04-03T00:38:43;103229.94;;;2.54
27715;BMP280;16051;53.024;8.630;2023-04-03T00:42:48;103222.38;;;2.47
27715;BMP280;16051;53.024;8.630;2023-04-03T00:46:52;103225.75;;;2.40
27715;BMP280;16051;53.024;8.630;2023-04-03T00:50:55;103238.59;;;2.40
27715;BMP280;16051;53.024;8.630;2023-04-03T00:55:02;103241.88;;;2.30
27715;BMP280;16051;53.024;8.630;2023-04-03T00:59:15;103245.66;;;2.25
27715;BMP280;16051;53.024;8.630;2023-04-03T01:03:18;103248.66;;;2.20
27715;BMP280;16051;53.024;8.630;2023-04-03T01:07:25;103245.47;;;2.18
27715;BMP280;16051;53.024;8.630;2023-04-03T01:11:28;103252.63;;;2.07
27715;BMP280;16051;53.024;8.630;2023-04-03T01:15:33;103254.44;;;2.03
27715;BMP280;16051;53.024;8.630;2023-04-03T01:19:42;103255.72;;;2.06
27715;BMP280;16051;53.024;8.630;2023-04-03T01:24:11;103253.56;;;1.99
27715;BMP280;16051;53.024;8.630;2023-04-03T01:28:19;103257.81;;;1.96
27715;BMP280;16051;53.024;8.630;2023-04-03T01:32:23;103259.22;;;1.90
27715;BMP280;16051;53.024;8.630;2023-04-03T01:36:28;103262.38;;;1.92
27715;BMP280;16051;53.024;8.630;2023-04-03T01:40:31;103268.81;;;1.84
27715;BMP280;16051;53.024;8.630;2023-04-03T01:44:33;103276.53;;;1.82
27715;BMP280;16051;53.024;8.630;2023-04-03T01:48:39;103275.91;;;1.73
27715;BMP280;16051;53.024;8.630;2023-04-03T01:52:41;103278.34;;;1.63
27715;BMP280;16051;53.024;8.630;2023-04-03T01:56:43;103274.38;;;1.60
27715;BMP280;16051;53.024;8.630;2023-04-03T02:00:46;103273.03;;;1.54
27715;BMP280;16051;53.024;8.630;2023-04-03T02:04:52;103282.03;;;1.55
27715;BMP280;16051;53.024;8.630;2023-04-03T02:08:55;103281.47;;;1.49
27715;BMP280;16051;53.024;8.630;2023-04-03T02:12:57;103280.03;;;1.39
27715;BMP280;16051;53.024;8.630;2023-04-03T02:17:00;103287.06;;;1.40
27715;BMP280;16051;53.024;8.630;2023-04-03T02:21:07;103286.88;;;1.33
27715;BMP280;16051;53.024;8.630;2023-04-03T02:25:11;103291.53;;;1.33
27715;BMP280;16051;53.024;8.630;2023-04-03T02:29:13;103291.75;;;1.28
27715;BMP280;16051;53.024;8.630;2023-04-03T02:33:16;103287.72;;;1.22
27715;BMP280;16051;53.024;8.630;2023-04-03T02:37:20;103300.19;;;1.23
27715;BMP280;16051;53.024;8.630;2023-04-03T02:41:22;103293.06;;;1.18
27715;BMP280;16051;53.024;8.630;2023-04-03T02:45:26;103282.97;;;1.19
27715;BMP280;16051;53.024;8.630;2023-04-03T02:49:28;103294.66;;;1.07
27715;BMP280;16051;53.024;8.630;2023-04-03T02:53:36;103296.16;;;1.05
27715;BMP280;16051;53.024;8.630;2023-04-03T02:57:38;103294.66;;;1.07
27715;BMP280;16051;53.024;8.630;2023-04-03T03:01:40;103297.63;;;1.02
27715;BMP280;16051;53.024;8.630;2023-04-03T03:05:43;103300.50;;;0.93
27715;BMP280;16051;53.024;8.630;2023-04-03T03:09:46;103296.97;;;0.93
27715;BMP280;16051;53.024;8.630;2023-04-03T03:13:49;103291.66;;;0.84
27715;BMP280;16051;53.024;8.630;2023-04-03T03:17:51;103286.66;;;0.86
27715;BMP280;16051;53.024;8.630;2023-04-03T03:21:53;103308.44;;;0.86
27715;BMP280;16051;53.024;8.630;2023-04-03T03:26:19;103291.22;;;0.82
27715;BMP280;16051;53.024;8.630;2023-04-03T03:30:21;103296.09;;;0.77
27715;BMP280;16051;53.024;8.630;2023-04-03T03:34:24;103293.59;;;0.72
27715;BMP280;16051;53.024;8.630;2023-04-03T03:38:26;103299.97;;;0.64
27715;BMP280;16051;53.024;8.630;2023-04-03T03:42:31;103298.38;;;0.63
27715;BMP280;16051;53.024;8.630;2023-04-03T03:46:33;103296.78;;;0.62
27715;BMP280;16051;53.024;8.630;2023-04-03T03:50:43;103300.19;;;0.59
27715;BMP280;16051;53.024;8.630;2023-04-03T03:54:45;103295.19;;;0.48
27715;BMP280;16051;53.024;8.630;2023-04-03T03:58:59;103299.50;;;0.49
27715;BMP280;16051;53.024;8.630;2023-04-03T04:03:01;103307.88;;;0.44
27715;BMP280;16051;53.024;8.630;2023-04-03T04:07:04;103311.88;;;0.47
27715;BMP280;16051;53.024;8.630;2023-04-03T04:11:24;103307.56;;;0.46
27715;BMP280;16051;53.024;8.630;2023-04-03T04:15:29;103313.81;;;0.46
27715;BMP280;16051;53.024;8.630;2023-04-03T04:19:31;103307.09;;;0.44
27715;BMP280;16051;53.024;8.630;2023-04-03T04:23:39;103313.09;;;0.37
27715;BMP280;16051;53.024;8.630;2023-04-03T04:27:41;103327.06;;;0.36
27715;BMP280;16051;53.024;8.630;2023-04-03T04:31:44;103325.00;;;0.33
27715;BMP280;16051;53.024;8.630;2023-04-03T04:36:02;103335.88;;;0.33
27715;BMP280;16051;53.024;8.630;2023-04-03T04:40:06;103339.75;;;0.32
27715;BMP280;16051;53.024;8.630;2023-04-03T04:44:08;103341.31;;;0.21
27715;BMP280;16051;53.024;8.630;2023-04-03T04:48:12;103339.72;;;0.20
27715;BMP280;16051;53.024;8.630;2023-04-03T04:52:34;103347.06;;;0.19
27715;BMP280;16051;53.024;8.630;2023-04-03T04:56:47;103346.16;;;0.15
27715;BMP280;16051;53.024;8.630;2023-04-03T05:00:49;103347.84;;;0.08
27715;BMP280;16051;53.024;8.630;2023-04-03T05:04:52;103357.47;;;0.05
27715;BMP280;16051;53.024;8.630;2023-04-03T05:09:05;103355.88;;;0.04
27715;BMP280;16051;53.024;8.630;2023-04-03T05:13:07;103360.84;;;0.02
27715;BMP280;16051;53.024;8.630;2023-04-03T05:17:09;103358.13;;;0.02
27715;BMP280;16051;53.024;8.630;2023-04-03T05:21:12;103363.44;;;-0.02
27715;BMP280;16051;53.024;8.630;2023-04-03T05:25:23;103360.84;;;0.02
27715;BMP280;16051;53.024;8.630;2023-04-03T05:29:25;103365.75;;;0.09
27715;BMP280;16051;53.024;8.630;2023-04-03T05:33:27;103357.47;;;0.05
27715;BMP280;16051;53.024;8.630;2023-04-03T05:37:31;103360.84;;;0.02
27715;BMP280;16051;53.024;8.630;2023-04-03T05:41:33;103367.22;;;0.06
27715;BMP280;16051;53.024;8.630;2023-04-03T05:45:35;103371.53;;;0.07
27715;BMP280;16051;53.024;8.630;2023-04-03T05:49:37;103378.53;;;0.08
27715;BMP280;16051;53.024;8.630;2023-04-03T05:53:44;103376.06;;;0.15
27715;BMP280;16051;53.024;8.630;2023-04-03T05:57:55;103384.81;;;0.21
27715;BMP280;16051;53.024;8.630;2023-04-03T06:01:57;103391.75;;;0.30
27715;BMP280;16051;53.024;8.630;2023-04-03T06:06:02;103395.94;;;0.40
27715;BMP280;16051;53.024;8.630;2023-04-03T06:10:08;103400.97;;;0.50
27715;BMP280;16051;53.024;8.630;2023-04-03T06:14:11;103406.41;;;0.62
27715;BMP280;16051;53.024;8.630;2023-04-03T06:18:14;103406.41;;;0.74
27715;BMP280;16051;53.024;8.630;2023-04-03T06:22:16;103414.72;;;0.90
27715;BMP280;16051;53.024;8.630;2023-04-03T06:26:19;103409.72;;;1.04
27715;BMP280;16051;53.024;8.630;2023-04-03T06:30:23;103400.81;;;1.31
27715;BMP280;16051;53.024;8.630;2023-04-03T06:34:25;103403.47;;;1.56
27715;BMP280;16051;53.024;8.630;2023-04-03T06:38:47;103409.19;;;1.78
27715;BMP280;16051;53.024;8.630;2023-04-03T06:42:58;103417.13;;;2.11
27715;BMP280;16051;53.024;8.630;2023-04-03T06:47:16;103419.09;;;2.26
27715;BMP280;16051;53.024;8.630;2023-04-03T06:51:30;103430.75;;;2.55
27715;BMP280;16051;53.024;8.630;2023-04-03T06:55:40;103434.28;;;2.71
27715;BMP280;16051;53.024;8.630;2023-04-03T06:59:55;103442.13;;;2.88
27715;BMP280;16051;53.024;8.630;2023-04-03T07:03:57;103440.69;;;3.10
27715;BMP280;16051;53.024;8.630;2023-04-03T07:07:59;103445.69;;;3.23
27715;BMP280;16051;53.024;8.630;2023-04-03T07:12:01;103453.72;;;3.51
27715;BMP280;16051;53.024;8.630;2023-04-03T07:16:30;103452.31;;;3.76
27715;BMP280;16051;53.024;8.630;2023-04-03T07:20:39;103445.84;;;4.04
27715;BMP280;16051;53.024;8.630;2023-04-03T07:24:41;103458.16;;;4.13
27715;BMP280;16051;53.024;8.630;2023-04-03T07:28:43;103457.13;;;4.40
27715;BMP280;16051;53.024;8.630;2023-04-03T07:32:49;103469.13;;;4.55
27715;BMP280;16051;53.024;8.630;2023-04-03T07:36:53;103468.41;;;4.81
27715;BMP280;16051;53.024;8.630;2023-04-03T07:40:55;103473.38;;;4.98
27715;BMP280;16051;53.024;8.630;2023-04-03T07:49:13;103478.41;;;5.19
27715;BMP280;16051;53.024;8.630;2023-04-03T07:53:15;103473.50;;;5.31
27715;BMP280;16051;53.024;8.630;2023-04-03T07:57:17;103470.28;;;5.52
27715;BMP280;16051;53.024;8.630;2023-04-03T08:01:19;103480.19;;;5.60
27715;BMP280;16051;53.024;8.630;2023-04-03T08:05:23;103480.09;;;5.53
27715;BMP280;16051;53.024;8.630;2023-04-03T08:09:37;103480.44;;;5.52
27715;BMP280;16051;53.024;8.630;2023-04-03T08:13:39;103480.75;;;5.73
27715;BMP280;16051;53.024;8.630;2023-04-03T08:17:42;103484.13;;;5.89
27715;BMP280;16051;53.024;8.630;2023-04-03T08:21:45;103481.66;;;6.10
27715;BMP280;16051;53.024;8.630;2023-04-03T08:25:49;103475.09;;;6.18
27715;BMP280;16051;53.024;8.630;2023-04-03T08:29:52;103469.16;;;6.16
27715;BMP280;16051;53.024;8.630;2023-04-03T08:33:56;103468.19;;;6.35
27715;BMP280;16051;53.024;8.630;2023-04-03T08:38:00;103480.69;;;6.29
27715;BMP280;16051;53.024;8.630;2023-04-03T08:42:13;103471.25;;;6.30
27715;BMP280;16051;53.024;8.630;2023-04-03T08:46:19;103472.59;;;6.43
27715;BMP280;16051;53.024;8.630;2023-04-03T08:50:30;103463.56;;;6.42
27715;BMP280;16051;53.024;8.630;2023-04-03T08:54:49;103458.88;;;6.43
27715;BMP280;16051;53.024;8.630;2023-04-03T08:58:57;103454.28;;;6.54
27715;BMP280;16051;53.024;8.630;2023-04-03T09:03:13;103454.63;;;6.53
27715;BMP280;16051;53.024;8.630;2023-04-03T09:07:22;103452.31;;;6.55
27715;BMP280;16051;53.024;8.630;2023-04-03T09:11:55;103454.75;;;6.67
27715;BMP280;16051;53.024;8.630;2023-04-03T09:16:00;103454.91;;;6.84
27715;BMP280;16051;53.024;8.630;2023-04-03T09:20:17;103449.06;;;6.86
27715;BMP280;16051;53.024;8.630;2023-04-03T09:24:32;103449.16;;;7.00
27715;BMP280;16051;53.024;8.630;2023-04-03T09:28:48;103457.97;;;7.23
27715;BMP280;16051;53.024;8.630;2023-04-03T09:32:53;103441.94;;;7.36
27715;BMP280;16051;53.024;8.630;2023-04-03T09:37:09;103441.72;;;7.66
27715;BMP280;16051;53.024;8.630;2023-04-03T09:41:18;103442.94;;;7.82
27715;BMP280;16051;53.024;8.630;2023-04-03T09:45:26;103434.41;;;8.16
27715;BMP280;16051;53.024;8.630;2023-04-03T09:49:28;103432.53;;;8.37
27715;BMP280;16051;53.024;8.630;2023-04-03T09:53:38;103430.56;;;8.45
27715;BMP280;16051;53.024;8.630;2023-04-03T09:57:41;103421.13;;;8.43
27715;BMP280;16051;53.024;8.630;2023-04-03T10:01:59;103422.31;;;8.52
27715;BMP280;16051;53.024;8.630;2023-04-03T10:06:03;103419.56;;;8.56
27715;BMP280;16051;53.024;8.630;2023-04-03T10:10:26;103411.28;;;8.77
27715;BMP280;16051;53.024;8.630;2023-04-03T10:14:31;103412.47;;;8.65
27715;BMP280;16051;53.024;8.630;2023-04-03T10:18:42;103411.97;;;9.30
27715;BMP280;16051;53.024;8.630;2023-04-03T10:23:00;103406.84;;;9.43
27715;BMP280;16051;53.024;8.630;2023-04-03T10:27:10;103407.13;;;9.66
27715;BMP280;16051;53.024;8.630;2023-04-03T10:31:22;103397.13;;;9.97
27715;BMP280;16051;53.024;8.630;2023-04-03T10:35:42;103413.28;;;9.99
27715;BMP280;16051;53.024;8.630;2023-04-03T10:40:05;103398.16;;;10.24
27715;BMP280;16051;53.024;8.630;2023-04-03T10:44:28;103392.47;;;10.46
27715;BMP280;16051;53.024;8.630;2023-04-03T10:49:01;103385.13;;;11.17
27715;BMP280;16051;53.024;8.630;2023-04-03T10:53:18;103379.06;;;11.26
27715;BMP280;16051;53.024;8.630;2023-04-03T10:57:25;103374.31;;;11.26
27715;BMP280;16051;53.024;8.630;2023-04-03T11:01:33;103378.53;;;11.68
27715;BMP280;16051;53.024;8.630;2023-04-03T11:05:42;103375.09;;;11.61
27715;BMP280;16051;53.024;8.630;2023-04-03T11:10:02;103364.13;;;11.84
27715;BMP280;16051;53.024;8.630;2023-04-03T11:14:11;103361.78;;;11.82
27715;BMP280;16051;53.024;8.630;2023-04-03T11:18:32;103353.78;;;12.15
27715;BMP280;16051;53.024;8.630;2023-04-03T11:22:41;103358.72;;;12.27
27715;BMP280;16051;53.024;8.630;2023-04-03T11:26:45;103349.13;;;12.08
27715;BMP280;16051;53.024;8.630;2023-04-03T11:30:56;103348.81;;;12.03
27715;BMP280;16051;53.024;8.630;2023-04-03T11:35:06;103348.69;;;11.83
27715;BMP280;16051;53.024;8.630;2023-04-03T11:39:21;103337.31;;;11.77
27715;BMP280;16051;53.024;8.630;2023-04-03T11:43:58;103329.72;;;12.08
27715;BMP280;16051;53.024;8.630;2023-04-03T11:48:05;103324.56;;;12.57
27715;BMP280;16051;53.024;8.630;2023-04-03T11:52:10;103320.00;;;12.90
27715;BMP280;16051;53.024;8.630;2023-04-03T11:56:32;103317.63;;;13.11
27715;BMP280;16051;53.024;8.630;2023-04-03T12:01:07;103304.22;;;12.87
27715;BMP280;16051;53.024;8.630;2023-04-03T12:05:27;103307.16;;;13.19
27715;BMP280;16051;53.024;8.630;2023-04-03T12:09:57;103303.03;;;13.63
27715;BMP280;16051;53.024;8.630;2023-04-03T12:14:14;103304.81;;;13.53
27715;BMP280;16051;53.024;8.630;2023-04-03T12:19:00;103285.44;;;14.02
27715;BMP280;16051;53.024;8.630;2023-04-03T12:23:28;103285.38;;;13.53
27715;BMP280;16051;53.024;8.630;2023-04-03T12:27:44;103292.09;;;12.57
27715;BMP280;16051;53.024;8.630;2023-04-03T12:32:09;103284.03;;;12.20
27715;BMP280;16051;53.024;8.630;2023-04-03T12:36:25;103266.34;;;13.36
27715;BMP280;16051;53.024;8.630;2023-04-03T12:40:38;103269.44;;;14.22
27715;BMP280;16051;53.024;8.630;2023-04-03T12:44:56;103263.13;;;13.73
27715;BMP280;16051;53.024;8.630;2023-04-03T12:49:14;103259.56;;;12.38
27715;BMP280;16051;53.024;8.630;2023-04-03T12:53:24;103239.28;;;12.84
27715;BMP280;16051;53.024;8.630;2023-04-03T12:57:36;103245.38;;;12.75
27715;BMP280;16051;53.024;8.630;2023-04-03T13:01:38;103230.84;;;12.48
27715;BMP280;16051;53.024;8.630;2023-04-03T13:05:45;103246.28;;;12.49
27715;BMP280;16051;53.024;8.630;2023-04-03T13:10:02;103216.94;;;12.71
27715;BMP280;16051;53.024;8.630;2023-04-03T13:14:16;103232.84;;;13.26
27715;BMP280;16051;53.024;8.630;2023-04-03T13:18:24;103232.06;;;13.06
27715;BMP280;16051;53.024;8.630;2023-04-03T13:22:33;103220.28;;;12.20
27715;BMP280;16051;53.024;8.630;2023-04-03T13:26:41;103227.09;;;11.92
27715;BMP280;16051;53.024;8.630;2023-04-03T13:31:07;103227.16;;;11.35
27715;BMP280;16051;53.024;8.630;2023-04-03T13:35:28;103220.44;;;11.90
27715;BMP280;16051;53.024;8.630;2023-04-03T13:39:32;103214.69;;;12.23
27715;BMP280;16051;53.024;8.630;2023-04-03T13:43:37;103196.94;;;13.00
27715;BMP280;16051;53.024;8.630;2023-04-03T13:47:43;103200.59;;;12.57
27715;BMP280;16051;53.024;8.630;2023-04-03T13:51:45;103199.75;;;11.94
27715;BMP280;16051;53.024;8.630;2023-04-03T13:56:06;103202.91;;;11.96
27715;BMP280;16051;53.024;8.630;2023-04-03T14:00:38;103199.16;;;12.06
27715;BMP280;16051;53.024;8.630;2023-04-03T14:04:54;103190.19;;;12.42
27715;BMP280;16051;53.024;8.630;2023-04-03T14:09:00;103187.00;;;12.43
27715;BMP280;16051;53.024;8.630;2023-04-03T14:13:12;103189.47;;;12.97
27715;BMP280;16051;53.024;8.630;2023-04-03T14:17:20;103175.28;;;13.30
27715;BMP280;16051;53.024;8.630;2023-04-03T14:21:23;103180.44;;;13.12
27715;BMP280;16051;53.024;8.630;2023-04-03T14:25:26;103177.81;;;12.26
27715;BMP280;16051;53.024;8.630;2023-04-03T14:29:37;103182.22;;;12.24
27715;BMP280;16051;53.024;8.630;2023-04-03T14:33:40;103178.31;;;11.48
27715;BMP280;16051;53.024;8.630;2023-04-03T14:37:43;103180.91;;;12.09
27715;BMP280;16051;53.024;8.630;2023-04-03T14:41:46;103182.66;;;11.76
27715;BMP280;16051;53.024;8.630;2023-04-03T14:45:56;103181.81;;;11.52
27715;BMP280;16051;53.024;8.630;2023-04-03T14:50:00;103173.34;;;11.63
27715;BMP280;16051;53.024;8.630;2023-04-03T14:54:05;103159.09;;;11.64
27715;BMP280;16051;53.024;8.630;2023-04-03T14:58:16;103159.50;;;11.63
27715;BMP280;16051;53.024;8.630;2023-04-03T15:02:29;103154.25;;;11.72
27715;BMP280;16051;53.024;8.630;2023-04-03T15:06:33;103156.28;;;11.68
27715;BMP280;16051;53.024;8.630;2023-04-03T15:10:36;103154.44;;;11.84
27715;BMP280;16051;53.024;8.630;2023-04-03T15:14:49;103154.06;;;11.32
27715;BMP280;16051;53.024;8.630;2023-04-03T15:18:51;103150.66;;;10.95
27715;BMP280;16051;53.024;8.630;2023-04-03T15:22:55;103158.91;;;10.68
27715;BMP280;16051;53.024;8.630;2023-04-03T15:27:06;103149.03;;;10.97
27715;BMP280;16051;53.024;8.630;2023-04-03T15:31:08;103143.41;;;11.04
27715;BMP280;16051;53.024;8.630;2023-04-03T15:35:11;103132.44;;;11.24
27715;BMP280;16051;53.024;8.630;2023-04-03T15:39:14;103126.91;;;11.74
27715;BMP280;16051;53.024;8.630;2023-04-03T15:43:17;103128.38;;;11.55
27715;BMP280;16051;53.024;8.630;2023-04-03T15:47:19;103131.22;;;11.28
27715;BMP280;16051;53.024;8.630;2023-04-03T15:51:21;103118.69;;;11.44
27715;BMP280;16051;53.024;8.630;2023-04-03T15:55:30;103122.00;;;11.08
27715;BMP280;16051;53.024;8.630;2023-04-03T15:59:32;103125.41;;;11.19
27715;BMP280;16051;53.024;8.630;2023-04-03T16:03:34;103115.25;;;11.36
27715;BMP280;16051;53.024;8.630;2023-04-03T16:07:38;103118.47;;;11.08
27715;BMP280;16051;53.024;8.630;2023-04-03T16:11:41;103125.69;;;11.52
27715;BMP280;16051;53.024;8.630;2023-04-03T16:15:44;103114.72;;;11.45
27715;BMP280;16051;53.024;8.630;2023-04-03T16:19:53;103110.09;;;11.38
27715;BMP280;16051;53.024;8.630;2023-04-03T16:23:57;103115.91;;;11.20
27715;BMP280;16051;53.024;8.630;2023-04-03T16:28:07;103118.22;;;10.68
27715;BMP280;16051;53.024;8.630;2023-04-03T16:32:09;103114.75;;;10.61
27715;BMP280;16051;53.024;8.630;2023-04-03T16:36:11;103116.19;;;10.72
27715;BMP280;16051;53.024;8.630;2023-04-03T16:40:20;103110.31;;;10.70
27715;BMP280;16051;53.024;8.630;2023-04-03T16:44:37;103111.34;;;10.80
27715;BMP280;16051;53.024;8.630;2023-04-03T16:48:40;103105.31;;;10.58
27715;BMP280;16051;53.024;8.630;2023-04-03T16:52:42;103103.16;;;10.73
27715;BMP280;16051;53.024;8.630;2023-04-03T16:56:47;103112.91;;;10.51
27715;BMP280;16051;53.024;8.630;2023-04-03T17:00:54;103104.47;;;10.31
27715;BMP280;16051;53.024;8.630;2023-04-03T17:04:56;103106.25;;;10.11
27715;BMP280;16051;53.024;8.630;2023-04-03T17:08:59;103101.53;;;10.08
27715;BMP280;16051;53.024;8.630;2023-04-03T17:13:16;103112.72;;;9.97
27715;BMP280;16051;53.024;8.630;2023-04-03T17:17:48;103109.88;;;9.60
27715;BMP280;16051;53.024;8.630;2023-04-03T17:21:52;103104.28;;;9.70
27715;BMP280;16051;53.024;8.630;2023-04-03T17:25:54;103112.31;;;9.54
27715;BMP280;16051;53.024;8.630;2023-04-03T17:30:00;103111.56;;;9.50
27715;BMP280;16051;53.024;8.630;2023-04-03T17:34:04;103112.00;;;9.42
27715;BMP280;16051;53.024;8.630;2023-04-03T17:38:06;103110.19;;;9.24
27715;BMP280;16051;53.024;8.630;2023-04-03T17:42:08;103113.00;;;9.14
27715;BMP280;16051;53.024;8.630;2023-04-03T17:46:11;103119.34;;;9.11
27715;BMP280;16051;53.024;8.630;2023-04-03T17:50:14;103119.44;;;8.93
27715;BMP280;16051;53.024;8.630;2023-04-03T17:54:17;103126.16;;;8.88
27715;BMP280;16051;53.024;8.630;2023-04-03T17:59:08;103125.03;;;8.75
27715;BMP280;16051;53.024;8.630;2023-04-03T18:03:12;103127.41;;;8.73
27715;BMP280;16051;53.024;8.630;2023-04-03T18:07:21;103130.63;;;8.54
27715;BMP280;16051;53.024;8.630;2023-04-03T18:11:27;103136.97;;;8.44
27715;BMP280;16051;53.024;8.630;2023-04-03T18:15:30;103137.81;;;8.30
27715;BMP280;16051;53.024;8.630;2023-04-03T18:19:38;103127.59;;;8.20
27715;BMP280;16051;53.024;8.630;2023-04-03T18:23:46;103135.44;;;8.18
27715;BMP280;16051;53.024;8.630;2023-04-03T18:27:49;103143.34;;;8.09
27715;BMP280;16051;53.024;8.630;2023-04-03T18:32:01;103133.53;;;7.98
27715;BMP280;16051;53.024;8.630;2023-04-03T18:36:16;103136.66;;;8.00
27715;BMP280;16051;53.024;8.630;2023-04-03T18:40:20;103136.66;;;7.89
27715;BMP280;16051;53.024;8.630;2023-04-03T18:44:24;103152.00;;;7.90
27715;BMP280;16051;53.024;8.630;2023-04-03T18:48:27;103138.25;;;7.76
27715;BMP280;16051;53.024;8.630;2023-04-03T18:52:29;103144.56;;;7.55
27715;BMP280;16051;53.024;8.630;2023-04-03T18:56:38;103141.41;;;7.57
27715;BMP280;16051;53.024;8.630;2023-04-03T19:00:41;103135.91;;;7.46
27715;BMP280;16051;53.024;8.630;2023-04-03T19:04:45;103139.81;;;7.34
27715;BMP280;16051;53.024;8.630;2023-04-03T19:08:49;103149.63;;;7.32
27715;BMP280;16051;53.024;8.630;2023-04-03T19:12:54;103144.53;;;7.34
27715;BMP280;16051;53.024;8.630;2023-04-03T19:16:56;103148.47;;;7.29
27715;BMP280;16051;53.024;8.630;2023-04-03T19:20:58;103143.28;;;6.96
27715;BMP280;16051;53.024;8.630;2023-04-03T19:25:08;103145.22;;;6.88
27715;BMP280;16051;53.024;8.630;2023-04-03T19:29:38;103153.84;;;6.83
27715;BMP280;16051;53.024;8.630;2023-04-03T19:33:41;103144.00;;;6.75
27715;BMP280;16051;53.024;8.630;2023-04-03T19:37:44;103151.81;;;6.70
27715;BMP280;16051;53.024;8.630;2023-04-03T19:41:48;103149.75;;;6.49
27715;BMP280;16051;53.024;8.630;2023-04-03T19:45:58;103136.38;;;6.44
27715;BMP280;16051;53.024;8.630;2023-04-03T19:50:00;103143.06;;;6.39
27715;BMP280;16051;53.024;8.630;2023-04-03T19:54:03;103153.13;;;6.18
27715;BMP280;16051;53.024;8.630;2023-04-03T19:58:05;103154.97;;;6.00
27715;BMP280;16051;53.024;8.630;2023-04-03T20:02:09;103159.69;;;6.03
27715;BMP280;16051;53.024;8.630;2023-04-03T20:06:14;103155.31;;;5.94
27715;BMP280;16051;53.024;8.630;2023-04-03T20:10:24;103160.75;;;5.87
27715;BMP280;16051;53.024;8.630;2023-04-03T20:14:26;103161.41;;;5.74
27715;BMP280;16051;53.024;8.630;2023-04-03T20:18:30;103161.69;;;5.65
27715;BMP280;16051;53.024;8.630;2023-04-03T20:22:34;103150.97;;;5.46
27715;BMP280;16051;53.024;8.630;2023-04-03T20:26:37;103156.84;;;5.48
27715;BMP280;16051;53.024;8.630;2023-04-03T20:30:47;103166.22;;;5.43
27715;BMP280;16051;53.024;8.630;2023-04-03T20:34:52;103165.34;;;5.36
27715;BMP280;16051;53.024;8.630;2023-04-03T20:38:54;103162.84;;;5.20
27715;BMP280;16051;53.024;8.630;2023-04-03T20:42:57;103158.03;;;5.10
27715;BMP280;16051;53.024;8.630;2023-04-03T20:47:17;103149.19;;;4.87
27715;BMP280;16051;53.024;8.630;2023-04-03T20:51:21;103147.59;;;4.86
27715;BMP280;16051;53.024;8.630;2023-04-03T20:55:23;103141.63;;;4.77
27715;BMP280;16051;53.024;8.630;2023-04-03T20:59:26;103151.00;;;4.76
27715;BMP280;16051;53.024;8.630;2023-04-03T21:03:29;103153.66;;;4.69
27715;BMP280;16051;53.024;8.630;2023-04-03T21:22:31;103152.16;;;4.45
27715;BMP280;16051;53.024;8.630;2023-04-03T21:26:33;103150.06;;;4.35
27715;BMP280;16051;53.024;8.630;2023-04-03T21:30:36;103151.03;;;4.20
27715;BMP280;16051;53.024;8.630;2023-04-03T21:34:52;103148.13;;;4.09
27715;BMP280;16051;53.024;8.630;2023-04-03T21:38:55;103150.63;;;4.18
27715;BMP280;16051;53.024;8.630;2023-04-03T21:42:58;103154.03;;;4.11
27715;BMP280;16051;53.024;8.630;2023-04-03T21:47:00;103142.94;;;4.01
27715;BMP280;16051;53.024;8.630;2023-04-03T21:51:04;103132.25;;;3.92
27715;BMP280;16051;53.024;8.630;2023-04-03T21:55:08;103146.56;;;4.08
27715;BMP280;16051;53.024;8.630;2023-04-03T21:59:11;103133.03;;;3.92
27715;BMP280;16051;53.024;8.630;2023-04-03T22:03:18;103141.59;;;3.91
27715;BMP280;16051;53.024;8.630;2023-04-03T22:07:23;103134.88;;;3.85
27715;BMP280;16051;53.024;8.630;2023-04-03T22:11:25;103141.03;;;3.78
27715;BMP280;16051;53.024;8.630;2023-04-03T22:15:29;103146.19;;;3.83
27715;BMP280;16051;53.024;8.630;2023-04-03T22:19:31;103144.97;;;3.81
27715;BMP280;16051;53.024;8.630;2023-04-03T22:23:35;103144.56;;;3.79
27715;BMP280;16051;53.024;8.630;2023-04-03T22:27:37;103134.59;;;3.67
27715;BMP280;16051;53.024;8.630;2023-04-03T22:32:13;103136.88;;;3.62
27715;BMP280;16051;53.024;8.630;2023-04-03T22:36:15;103140.63;;;3.54
27715;BMP280;16051;53.024;8.630;2023-04-03T22:40:19;103139.78;;;3.50
27715;BMP280;16051;53.024;8.630;2023-04-03T22:44:28;103137.78;;;3.46
27715;BMP280;16051;53.024;8.630;2023-04-03T22:48:31;103133.88;;;3.47
27715;BMP280;16051;53.024;8.630;2023-04-03T22:52:33;103141.66;;;3.45
27715;BMP280;16051;53.024;8.630;2023-04-03T22:56:37;103131.50;;;3.46
27715;BMP280;16051;53.024;8.630;2023-04-03T23:00:49;103139.16;;;3.37
27715;BMP280;16051;53.024;8.630;2023-04-03T23:04:51;103134.78;;;3.32
27715;BMP280;16051;53.024;8.630;2023-04-03T23:08:53;103135.63;;;3.36
27715;BMP280;16051;53.024;8.630;2023-04-03T23:12:57;103137.03;;;3.27
27715;BMP280;16051;53.024;8.630;2023-04-03T23:16:59;103131.88;;;3.22
27715;BMP280;16051;53.024;8.630;2023-04-03T23:21:05;103140.63;;;3.12
27715;BMP280;16051;53.024;8.630;2023-04-03T23:25:08;103128.84;;;3.08
27715;BMP280;16051;53.024;8.630;2023-04-03T23:29:12;103133.03;;;3.02
27715;BMP280;16051;53.024;8.630;2023-04-03T23:33:38;103141.22;;;3.02
27715;BMP280;16051;53.024;8.630;2023-04-03T23:37:43;103139.50;;;2.93
27715;BMP280;16051;53.024;8.630;2023-04-03T23:42:19;103140.16;;;2.87
27715;BMP280;16051;53.024;8.630;2023-04-03T23:46:22;103140.81;;;2.80
27715;BMP280;16051;53.024;8.630;2023-04-03T23:50:25;103140.69;;;2.73
27715;BMP280;16051;53.024;8.630;2023-04-03T23:54:27;103137.16;;;2.73
27715;BMP280;16051;53.024;8.630;2023-04-03T23:58:37;103133.88;;;2.64
